Time;durP1;ratioP1;P1;durP2;ratioP2;P2;SDS_P1;SDS_P2;PMS_P1;PMS_P2;Temp;Humidity;BMP_temperature;BMP_pressure;BME280_temperature;BME280_humidity;BME280_pressure;Samples;Min_cycle;Max_cycle;Signal;HPM_P1;HPM_P2
2022/06/14 00:04:02;;;;;;;27.63;18.58;;;;;;;15.91;100.00;97568.75;10456091;28;20083;-57
2022/06/14 00:09:01;;;;;;;23.08;16.55;;;;;;;15.70;100.00;97564.03;10456131;28;20055;-57
2022/06/14 00:14:02;;;;;;;20.02;13.55;;;;;;;15.30;100.00;97573.69;10455967;28;20070;-57
2022/06/14 00:19:04;;;;;;;19.80;14.02;;;;;;;15.14;100.00;97572.31;10455974;28;20062;-57
2022/06/14 00:24:05;;;;;;;19.17;14.63;;;;;;;15.07;100.00;97558.50;10455567;28;20760;-57
2022/06/14 00:29:04;;;;;;;22.95;15.60;;;;;;;15.16;100.00;97555.69;10458619;28;20062;-57
2022/06/14 00:34:03;;;;;;;22.80;17.00;;;;;;;15.28;100.00;97566.78;10463405;28;20066;-57
2022/06/14 00:39:06;;;;;;;;;;;;;;;15.31;100.00;97566.69;10462856;28;20514;-57
2022/06/14 00:44:12;;;;;;;26.73;16.58;;;;;;;15.27;100.00;97568.50;10461937;28;19936;-57
2022/06/14 00:49:19;;;;;;;27.17;18.27;;;;;;;15.19;100.00;97573.91;10465021;28;20020;-57
2022/06/14 00:54:26;;;;;;;28.63;18.77;;;;;;;15.17;100.00;97575.69;10465240;28;20096;-57
2022/06/14 00:59:44;;;;;;;28.52;19.90;;;;;;;15.21;100.00;97572.13;10465514;28;20060;-57
2022/06/14 01:04:44;;;;;;;32.67;19.08;;;;;;;15.24;100.00;97577.28;10465319;28;20063;-57
2022/06/14 01:09:57;;;;;;;32.67;20.23;;;;;;;15.27;100.00;97570.25;10465126;28;20059;-57
2022/06/14 01:15:03;;;;;;;30.77;19.67;;;;;;;15.30;100.00;97564.97;10464736;28;20063;-57
2022/06/14 01:20:03;;;;;;;36.80;21.45;;;;;;;15.31;100.00;97567.53;10464890;28;20074;-57
2022/06/14 01:25:03;;;;;;;34.78;22.17;;;;;;;15.31;100.00;97562.31;10464229;28;20442;-57
2022/06/14 01:30:08;;;;;;;35.28;20.83;;;;;;;15.33;100.00;97559.66;10464234;28;20650;-57
2022/06/14 01:35:10;;;;;;;41.13;23.05;;;;;;;15.30;100.00;97560.59;10463614;28;20035;-57
2022/06/14 01:40:10;;;;;;;36.88;21.83;;;;;;;15.29;100.00;97558.88;10462974;28;20062;-57
2022/06/14 01:45:24;;;;;;;35.38;21.80;;;;;;;15.30;100.00;97552.75;10462532;28;20036;-57
2022/06/14 01:56:17;;;;;;;41.60;23.42;;;;;;;15.27;100.00;97549.34;10459192;28;20087;-57
2022/06/14 02:01:46;;;;;;;43.35;24.35;;;;;;;15.28;100.00;97562.41;10458954;28;20067;-57
2022/06/14 02:06:51;;;;;;;31.25;19.38;;;;;;;15.15;100.00;97564.41;10459429;28;20064;-57
2022/06/14 02:11:56;;;;;;;34.80;19.98;;;;;;;15.00;100.00;97573.47;10459691;28;20055;-57
2022/06/14 02:17:18;;;;;;;35.45;20.80;;;;;;;14.87;100.00;97573.75;10459030;28;20064;-57
2022/06/14 02:22:30;;;;;;;31.23;19.73;;;;;;;14.84;100.00;97564.22;10459257;28;20097;-57
2022/06/14 02:27:43;;;;;;;37.45;22.33;;;;;;;15.01;100.00;97583.03;10458928;28;20082;-57
2022/06/14 02:32:55;;;;;;;37.22;21.52;;;;;;;14.88;100.00;97594.63;10458886;28;20105;-57
2022/06/14 02:38:09;;;;;;;31.80;20.42;;;;;;;14.87;100.00;97592.88;10458296;28;20495;-57
2022/06/14 02:43:12;;;;;;;33.53;20.27;;;;;;;14.81;100.00;97588.66;10454811;28;20051;-57
2022/06/14 02:48:17;;;;;;;31.77;21.08;;;;;;;14.90;100.00;97597.22;10458714;28;20059;-57
2022/06/14 02:53:23;;;;;;;31.05;19.55;;;;;;;15.02;100.00;97596.94;10457626;28;20079;-58
2022/06/14 02:59:05;;;;;;;34.80;20.48;;;;;;;15.15;100.00;97595.78;10457223;28;20487;-57
2022/06/14 03:04:12;;;;;;;44.88;23.92;;;;;;;15.27;100.00;97596.41;10345163;28;20498;-57
2022/06/14 03:09:14;;;;;;;56.63;23.80;;;;;;;15.28;100.00;97591.16;10405889;28;20064;-57
2022/06/14 03:14:37;;;;;;;48.13;24.80;;;;;;;15.38;100.00;97599.63;10414711;28;20063;-57
2022/06/14 03:19:58;;;;;;;38.75;22.85;;;;;;;15.30;100.00;97615.50;10415417;28;20052;-57
2022/06/14 03:25:09;;;;;;;31.40;19.60;;;;;;;15.17;100.00;97596.59;10415850;28;20067;-57
2022/06/14 03:30:21;;;;;;;35.95;20.60;;;;;;;15.24;100.00;97607.78;10415393;28;20436;-57
2022/06/14 03:35:32;;;;;;;44.00;22.58;;;;;;;15.28;100.00;97606.84;10453045;28;20073;-57
2022/06/14 03:40:32;;;;;;;64.00;24.25;;;;;;;15.32;100.00;97610.22;10439010;28;20082;-57
2022/06/14 03:45:42;;;;;;;52.10;23.90;;;;;;;15.30;100.00;97614.66;10457577;28;20059;-57
2022/06/14 03:51:10;;;;;;;81.55;24.52;;;;;;;15.32;100.00;97615.44;10459711;28;20066;-57
2022/06/14 03:56:19;;;;;;;64.15;22.13;;;;;;;15.38;100.00;97620.56;10458689;28;20083;-57
2022/06/14 04:01:30;;;;;;;38.35;20.77;;;;;;;15.46;100.00;97624.72;10459603;28;20082;-57
2022/06/14 04:06:51;;;;;;;38.15;21.25;;;;;;;15.60;100.00;97627.03;10466679;28;20077;-57
2022/06/14 04:12:07;;;;;;;32.53;21.08;;;;;;;15.76;100.00;97621.41;10466654;28;20071;-57
2022/06/14 04:17:12;;;;;;;34.53;22.58;;;;;;;15.98;100.00;97630.50;10466710;28;20028;-57
2022/06/14 04:22:21;;;;;;;29.42;19.65;;;;;;;16.09;100.00;97630.22;10465518;28;20478;-57
2022/06/14 04:27:23;;;;;;;28.57;17.67;;;;;;;16.14;100.00;97640.59;10466915;28;20521;-57
2022/06/14 04:32:25;;;;;;;27.05;19.60;;;;;;;16.25;100.00;97651.66;10466468;28;20055;-57
2022/06/14 04:37:31;;;;;;;30.42;19.42;;;;;;;16.43;100.00;97650.31;10446906;28;20137;-57
2022/06/14 04:42:39;;;;;;;26.52;18.88;;;;;;;16.58;100.00;97643.81;10465563;28;20416;-57
2022/06/14 04:47:57;;;;;;;24.08;17.75;;;;;;;16.69;100.00;97652.25;10462745;28;20047;-57
2022/06/14 04:53:07;;;;;;;23.20;17.80;;;;;;;16.86;100.00;97664.91;10456280;28;20489;-57
2022/06/14 04:58:17;;;;;;;25.23;19.35;;;;;;;17.09;100.00;97666.91;10458616;28;20091;-57
2022/06/14 05:03:23;;;;;;;24.33;17.45;;;;;;;17.54;100.00;97666.44;10462224;28;20700;-57
2022/06/14 05:08:41;;;;;;;22.05;16.35;;;;;;;18.02;100.00;97660.59;10462046;28;20452;-57
2022/06/14 05:14:01;;;;;;;23.67;16.17;;;;;;;18.25;97.25;97672.13;10450251;28;20059;-57
2022/06/14 05:19:18;;;;;;;20.52;14.52;;;;;;;18.39;95.12;97672.53;10459489;28;20060;-57
2022/06/14 05:24:20;;;;;;;18.48;14.60;;;;;;;18.52;93.88;97670.31;10457372;28;20061;-57
2022/06/14 05:29:29;;;;;;;19.08;14.93;;;;;;;18.53;92.64;97664.16;10459050;28;20078;-57
2022/06/14 05:34:46;;;;;;;16.45;14.05;;;;;;;18.47;92.11;97675.72;10454412;28;20498;-58
2022/06/14 05:40:00;;;;;;;22.17;14.68;;;;;;;18.43;92.97;97678.50;10459445;28;20492;-57
2022/06/14 05:45:02;;;;;;;17.17;13.75;;;;;;;18.67;92.58;97677.69;10442216;28;20562;-57
2022/06/14 05:50:09;;;;;;;16.10;13.38;;;;;;;18.97;91.07;97686.31;10418330;28;20062;-58
2022/06/14 05:55:18;;;;;;;16.27;13.52;;;;;;;18.98;91.24;97687.16;10418222;28;20076;-58
2022/06/14 06:00:31;;;;;;;15.25;12.43;;;;;;;19.17;90.64;97700.50;10417485;28;20504;-57
2022/06/14 06:05:37;;;;;;;18.38;13.10;;;;;;;19.32;89.98;97699.94;10419995;28;20067;-58
2022/06/14 06:10:43;;;;;;;17.65;12.25;;;;;;;19.22;89.55;97688.03;10457730;28;20048;-57
2022/06/14 06:15:50;;;;;;;15.40;12.35;;;;;;;19.14;89.80;97700.63;10458785;28;20047;-58
2022/06/14 06:21:26;;;;;;;21.67;12.38;;;;;;;18.94;90.41;97696.91;10458552;28;20122;-58
2022/06/14 06:26:31;;;;;;;16.38;12.80;;;;;;;18.96;91.28;97704.75;10458544;28;20059;-57
2022/06/14 06:31:34;;;;;;;13.13;11.73;;;;;;;19.30;91.56;97703.50;10452905;28;20486;-58
2022/06/14 06:36:55;;;;;;;15.48;12.30;;;;;;;19.56;90.49;97687.66;10440755;28;20056;-57
2022/06/14 06:42:04;;;;;;;14.02;11.32;;;;;;;19.84;89.43;97692.72;10455053;28;20068;-57
2022/06/14 06:47:23;;;;;;;14.30;11.35;;;;;;;20.03;88.52;97707.78;10440520;28;20063;-57
2022/06/14 06:52:33;;;;;;;14.85;11.32;;;;;;;20.22;86.79;97702.63;10461014;28;20082;-58
2022/06/14 06:57:35;;;;;;;15.52;11.55;;;;;;;20.35;86.00;97698.56;10460424;28;20059;-57
2022/06/14 07:02:56;;;;;;;13.50;10.80;;;;;;;20.67;85.01;97689.31;10460452;28;20027;-58
2022/06/14 07:08:02;;;;;;;13.00;10.30;;;;;;;20.95;83.95;97693.41;10460442;28;20073;-58
2022/06/14 07:13:18;;;;;;;15.13;10.60;;;;;;;21.50;82.20;97701.53;10443783;28;20059;-57
2022/06/14 07:18:29;;;;;;;12.70;9.52;;;;;;;21.81;80.70;97705.38;10458004;28;20507;-57
2022/06/14 07:23:48;;;;;;;13.00;9.63;;;;;;;22.13;77.99;97700.34;10448231;28;20064;-57
2022/06/14 07:28:59;;;;;;;;;;;;;;;22.32;76.50;97695.91;10445103;28;20048;-57
2022/06/14 07:34:00;;;;;;;10.18;8.88;;;;;;;22.79;76.02;97705.91;10440058;28;20449;-58
2022/06/14 07:39:24;;;;;;;14.43;11.23;;;;;;;23.53;74.21;97701.19;10454448;28;20055;-58
2022/06/14 07:44:50;;;;;;;10.18;9.02;;;;;;;23.82;71.74;97708.41;10431746;28;20105;-58
2022/06/14 07:49:52;;;;;;;12.43;8.85;;;;;;;24.13;68.12;97713.78;10427663;28;20080;-57
2022/06/14 07:54:58;;;;;;;12.25;9.10;;;;;;;24.23;69.53;97717.66;10457416;28;20078;-58
2022/06/14 08:01:07;;;;;;;9.82;8.05;;;;;;;24.29;69.48;97717.31;10463425;28;20506;-58
2022/06/14 08:05:27;;;;;;;9.45;7.43;;;;;;;24.44;63.80;97704.94;10447011;28;20071;-58
2022/06/14 08:10:34;;;;;;;8.77;7.30;;;;;;;24.88;65.21;97718.28;10456612;28;20443;-57
2022/06/14 08:15:49;;;;;;;5.43;4.93;;;;;;;25.21;56.43;97709.22;10455560;28;20056;-58
2022/06/14 08:21:14;;;;;;;7.38;5.25;;;;;;;25.38;55.24;97715.31;10454861;28;20517;-58
2022/06/14 08:26:30;;;;;;;6.53;5.38;;;;;;;25.37;54.13;97717.13;10456771;28;20052;-57
2022/06/14 08:31:32;;;;;;;8.90;5.15;;;;;;;25.47;53.03;97715.56;10443161;28;20491;-57
2022/06/14 08:36:44;;;;;;;6.05;5.18;;;;;;;25.48;53.42;97697.81;10457268;28;20052;-58
2022/06/14 08:42:02;;;;;;;5.65;4.70;;;;;;;25.56;51.64;97711.53;10426667;28;20072;-58
2022/06/14 08:47:21;;;;;;;5.97;4.78;;;;;;;25.68;51.29;97705.44;10451345;28;20074;-58
2022/06/14 08:52:20;;;;;;;;;;;;;;;26.31;51.56;97703.22;10444137;28;20874;-58
2022/06/14 08:57:39;;;;;;;9.50;5.50;;;;;;;26.53;51.62;97713.28;10480526;28;20358;-58
2022/06/14 09:02:53;;;;;;;;;;;;;;;26.35;49.86;97705.59;10472903;28;20056;-58
2022/06/14 09:08:23;;;;;;;5.38;4.20;;;;;;;26.38;49.34;97704.53;10478004;28;20409;-58
2022/06/14 09:14:01;;;;;;;5.38;3.78;;;;;;;26.30;48.60;97697.06;10480480;28;20055;-57
2022/06/14 09:19:31;;;;;;;4.60;3.53;;;;;;;25.86;48.23;97707.91;10458856;28;20051;-57
2022/06/14 09:24:55;;;;;;;5.43;3.30;;;;;;;25.81;49.49;97699.34;10460710;28;20075;-57
2022/06/14 09:30:16;;;;;;;5.72;3.67;;;;;;;25.70;48.29;97702.69;10453907;28;20491;-58
2022/06/14 09:35:41;;;;;;;6.30;3.00;;;;;;;25.63;47.69;97707.53;10473371;28;20063;-58
2022/06/14 09:41:00;;;;;;;4.75;3.10;;;;;;;25.30;48.54;97691.88;10459349;28;20066;-59
2022/06/14 09:46:30;;;;;;;3.00;2.80;;;;;;;25.25;48.57;97686.84;10444715;28;20060;-58
2022/06/14 09:51:59;;;;;;;4.82;3.67;;;;;;;25.33;49.38;97683.72;10459822;28;20047;-59
2022/06/14 09:57:40;;;;;;;3.42;3.05;;;;;;;25.26;48.42;97683.22;10457732;28;20072;-58
2022/06/14 10:02:42;;;;;;;3.00;2.70;;;;;;;25.46;48.28;97673.19;10404928;28;20067;-59
2022/06/14 10:08:08;;;;;;;3.28;2.97;;;;;;;25.77;47.57;97674.78;10435907;28;20055;-58
2022/06/14 10:13:26;;;;;;;4.10;2.60;;;;;;;26.28;47.06;97661.72;10455207;28;20447;-58
2022/06/14 10:18:44;;;;;;;6.78;3.33;;;;;;;26.36;47.02;97646.09;10423379;28;20064;-58
2022/06/14 10:23:53;;;;;;;5.07;2.90;;;;;;;26.32;45.95;97651.72;10453242;28;20506;-58
2022/06/14 10:29:00;;;;;;;6.18;2.92;;;;;;;25.71;45.87;97657.44;10455087;28;20051;-58
2022/06/14 10:34:13;;;;;;;3.10;2.47;;;;;;;25.71;43.67;97652.13;10474140;28;20458;-58
2022/06/14 10:39:19;;;;;;;3.08;2.33;;;;;;;25.98;43.40;97651.25;10475401;28;20051;-58
2022/06/14 10:44:23;;;;;;;3.75;2.03;;;;;;;26.10;42.90;97639.81;10469303;28;20067;-58
2022/06/14 10:49:34;;;;;;;3.75;2.30;;;;;;;26.22;41.89;97634.69;10453976;28;20070;-58
2022/06/14 10:55:07;;;;;;;4.35;2.03;;;;;;;25.94;41.11;97647.09;10455267;28;20071;-58
2022/06/14 11:00:29;;;;;;;2.30;2.10;;;;;;;25.73;43.62;97657.31;10447128;28;20070;-58
2022/06/14 11:05:49;;;;;;;3.00;1.80;;;;;;;25.99;38.04;97660.94;10437823;28;20068;-58
2022/06/14 11:11:14;;;;;;;3.40;1.48;;;;;;;26.13;36.10;97655.56;10436760;28;20143;-58
2022/06/14 11:16:29;;;;;;;1.60;1.50;;;;;;;25.85;32.64;97647.69;10442370;28;20056;-58
2022/06/14 11:21:43;;;;;;;1.60;1.50;;;;;;;25.70;32.89;97650.38;10454991;28;20059;-58
2022/06/14 11:27:06;;;;;;;2.25;1.38;;;;;;;25.62;33.60;97650.03;10442914;28;20509;-58
2022/06/14 11:32:27;;;;;;;2.08;1.52;;;;;;;25.52;30.38;97638.25;10427670;28;20047;-58
2022/06/14 11:37:57;;;;;;;2.10;1.50;;;;;;;25.50;31.30;97640.13;10454047;28;20462;-58
2022/06/14 11:43:36;;;;;;;1.95;1.40;;;;;;;25.70;32.81;97630.94;10456258;28;20059;-58
2022/06/14 11:48:47;;;;;;;3.42;1.60;;;;;;;25.64;32.73;97640.13;10450078;28;20052;-58
2022/06/14 11:53:46;;;;;;;3.65;1.70;;;;;;;25.73;33.57;97628.06;10449039;28;20477;-58
2022/06/14 11:58:54;;;;;;;18.10;2.00;;;;;;;25.67;34.33;97639.97;10456822;28;20517;-58
2022/06/14 12:04:15;;;;;;;4.55;1.80;;;;;;;25.80;34.43;97633.84;10459322;28;20052;-58
2022/06/14 12:10:07;;;;;;;4.03;1.92;;;;;;;25.80;33.33;97634.69;10458727;28;20056;-58
2022/06/14 12:15:29;;;;;;;2.65;1.70;;;;;;;25.78;33.48;97617.16;10421211;28;20472;-58
2022/06/14 12:20:35;;;;;;;4.22;1.83;;;;;;;25.92;34.89;97619.75;10417009;28;20056;-57
2022/06/14 12:30:57;;;;;;;4.07;2.00;;;;;;;25.79;32.64;97601.09;10464004;28;20028;-58
2022/06/14 12:36:14;;;;;;;2.75;2.10;;;;;;;25.84;33.72;97612.28;10462976;28;20060;-58
2022/06/14 12:41:31;;;;;;;2.72;1.85;;;;;;;26.05;34.35;97612.69;10424234;28;20064;-57
2022/06/14 12:46:36;;;;;;;2.45;2.05;;;;;;;26.02;31.53;97604.91;10452212;28;20051;-58
2022/06/14 12:52:00;;;;;;;3.47;1.92;;;;;;;26.10;32.75;97613.22;10461428;28;20070;-58
2022/06/14 12:57:12;;;;;;;3.55;1.98;;;;;;;26.07;33.16;97610.78;10462272;28;20079;-58
2022/06/14 13:02:28;;;;;;;2.92;2.17;;;;;;;26.20;34.21;97609.97;10462623;28;20055;-58
2022/06/14 13:07:39;;;;;;;2.63;1.90;;;;;;;26.27;33.44;97621.91;10461783;28;20064;-58
2022/06/14 13:13:05;;;;;;;2.80;2.03;;;;;;;26.30;33.41;97600.41;10445176;28;20503;-58
2022/06/14 13:18:11;;;;;;;4.38;2.30;;;;;;;26.37;33.30;97601.75;10437779;28;20455;-58
2022/06/14 13:23:18;;;;;;;2.55;2.08;;;;;;;26.47;33.84;97583.34;10455411;28;20059;-58
2022/06/14 13:28:41;;;;;;;3.97;2.05;;;;;;;26.75;32.81;97600.91;10442104;28;20123;-58
2022/06/14 13:33:46;;;;;;;4.00;2.28;;;;;;;26.62;30.33;97600.91;10439592;28;20471;-58
2022/06/14 13:39:00;;;;;;;4.63;2.00;;;;;;;26.68;30.43;97604.97;10435211;28;20062;-58
2022/06/14 13:44:15;;;;;;;2.22;2.03;;;;;;;26.82;31.20;97615.50;10456939;28;20446;-58
2022/06/14 13:49:31;;;;;;;2.83;2.30;;;;;;;26.90;31.70;97602.53;10458642;28;20063;-58
2022/06/14 13:54:41;;;;;;;4.40;2.30;;;;;;;27.22;32.79;97594.09;10453867;28;20067;-58
2022/06/14 13:59:45;;;;;;;5.85;2.30;;;;;;;27.18;33.72;97593.44;10459272;28;20056;-58
2022/06/14 14:05:06;;;;;;;2.85;2.17;;;;;;;27.02;32.50;97576.84;10441264;28;20506;-58
2022/06/14 14:10:14;;;;;;;2.75;2.10;;;;;;;26.75;33.01;97584.94;10444082;28;20083;-58
2022/06/14 14:15:33;;;;;;;4.20;2.30;;;;;;;26.60;33.25;97586.00;10459478;28;20072;-58
2022/06/14 14:20:51;;;;;;;3.88;2.30;;;;;;;26.64;33.42;97588.34;10458567;28;20063;-58
2022/06/14 14:25:56;;;;;;;3.38;2.17;;;;;;;26.55;33.63;97576.50;10445957;28;20064;-58
2022/06/14 14:31:05;;;;;;;3.35;2.33;;;;;;;26.41;34.26;97565.97;10417016;28;20067;-58
2022/06/14 14:36:46;;;;;;;6.78;2.55;;;;;;;26.29;34.41;97561.50;10415203;28;20064;-58
2022/06/14 14:41:52;;;;;;;4.85;2.40;;;;;;;26.04;35.94;97554.28;10401591;28;20131;-57
2022/06/14 14:47:00;;;;;;;5.45;2.53;;;;;;;25.90;36.56;97565.81;10428202;28;20075;-58
2022/06/14 14:52:14;;;;;;;4.18;2.83;;;;;;;25.76;36.65;97557.91;10448569;28;20060;-57
2022/06/14 14:57:21;;;;;;;3.92;2.58;;;;;;;25.79;38.37;97563.03;10453069;28;20063;-57
2022/06/14 15:08:11;;;;;;;2.90;1.98;;;;;;;25.61;39.85;97557.97;10449162;28;20055;-57
2022/06/14 15:13:10;;;;;;;4.00;2.30;;;;;;;25.61;39.69;97571.25;10418405;28;20044;-57
2022/06/14 15:23:41;;;;;;;4.60;2.40;;;;;;;25.36;41.05;97589.69;10442117;28;20060;-57
2022/06/14 15:28:49;;;;;;;2.72;2.50;;;;;;;25.36;41.59;97590.53;10456124;28;20309;-57
2022/06/14 15:33:48;;;;;;;5.03;2.20;;;;;;;25.23;41.80;97593.13;10442732;28;20452;-57
2022/06/14 15:38:56;;;;;;;2.92;2.20;;;;;;;24.85;42.88;97608.78;10458358;28;20548;-58
2022/06/14 15:44:12;;;;;;;4.03;2.70;;;;;;;24.90;43.18;97609.38;10426626;28;20055;-58
2022/06/14 15:49:15;;;;;;;4.25;2.30;;;;;;;24.69;42.60;97617.66;10439128;28;20063;-57
2022/06/14 15:54:23;;;;;;;4.20;2.20;;;;;;;24.63;42.66;97630.44;10455083;28;20072;-57
2022/06/14 15:59:39;;;;;;;4.40;2.10;;;;;;;24.68;43.33;97636.31;10456335;28;20056;-58
2022/06/14 16:04:38;;;;;;;4.50;2.53;;;;;;;24.60;43.83;97635.94;10451930;28;20052;-57
2022/06/14 16:09:43;;;;;;;5.00;2.47;;;;;;;24.70;43.73;97653.00;10462028;28;20036;-57
2022/06/14 16:14:51;;;;;;;3.95;2.33;;;;;;;24.55;43.46;97657.44;10462219;28;20062;-58
2022/06/14 16:19:58;;;;;;;4.77;2.33;;;;;;;24.37;43.98;97661.16;10459634;28;20061;-57
2022/06/14 16:24:59;;;;;;;3.83;2.43;;;;;;;24.01;45.29;97671.13;10461271;28;20055;-58
2022/06/14 16:30:12;;;;;;;3.55;2.40;;;;;;;23.92;44.96;97682.25;10461469;28;20438;-58
2022/06/14 16:35:20;;;;;;;6.07;2.13;;;;;;;23.81;44.33;97689.94;10491624;28;20056;-57
2022/06/14 16:40:27;;;;;;;3.80;2.40;;;;;;;23.62;45.02;97698.88;10490642;28;20060;-57
2022/06/14 16:45:38;;;;;;;4.47;2.50;;;;;;;23.88;45.03;97699.25;10440210;28;20491;-58
2022/06/14 16:50:41;;;;;;;4.60;2.72;;;;;;;23.88;44.96;97707.19;10461407;28;20082;-57
2022/06/14 16:56:06;;;;;;;3.67;2.65;;;;;;;23.87;45.40;97718.75;10452074;28;20558;-58
2022/06/14 17:01:25;;;;;;;2.78;2.33;;;;;;;23.98;45.27;97723.44;10418729;28;20963;-57
2022/06/14 17:06:39;;;;;;;;;;;;;;;23.81;45.06;97725.22;10419528;28;20062;-57
2022/06/14 17:11:43;;;;;;;4.47;2.92;;;;;;;23.70;45.77;97734.69;10448186;28;20338;-57
2022/06/14 17:16:49;;;;;;;3.90;2.60;;;;;;;23.54;46.18;97740.84;10444177;28;20063;-57
2022/06/14 17:22:03;;;;;;;3.15;2.53;;;;;;;23.06;46.29;97749.53;10458666;28;20528;-57
2022/06/14 17:32:53;;;;;;;7.60;2.67;;;;;;;22.66;47.58;97744.44;10446983;28;20060;-57
2022/06/14 17:38:01;;;;;;;4.57;2.72;;;;;;;22.52;48.50;97762.81;10451018;28;20109;-57
2022/06/14 17:43:05;;;;;;;5.57;2.75;;;;;;;22.26;49.47;97769.38;10460231;28;20051;-58
2022/06/14 17:48:24;;;;;;;5.03;2.65;;;;;;;22.00;49.95;97786.47;10406827;28;20133;-57
2022/06/14 17:53:43;;;;;;;4.18;3.08;;;;;;;21.92;50.75;97794.69;10434428;28;20079;-57
2022/06/14 17:59:06;;;;;;;6.65;2.70;;;;;;;21.72;51.29;97798.25;10456678;28;20074;-58
2022/06/14 18:04:13;;;;;;;6.25;2.90;;;;;;;21.57;51.57;97799.81;10407292;28;20068;-57
2022/06/14 18:09:13;;;;;;;5.18;2.90;;;;;;;21.45;52.06;97814.41;10425615;28;20059;-57
2022/06/14 18:14:25;;;;;;;5.78;2.83;;;;;;;21.04;50.82;97788.00;10444760;28;20052;-58
2022/06/14 18:24:52;;;;;;;4.55;3.35;;;;;;;20.95;51.54;97833.22;10415737;28;20060;-58
2022/06/14 18:29:54;;;;;;;5.65;2.90;;;;;;;20.83;51.22;97833.75;10424476;28;20064;-58
2022/06/14 18:34:56;;;;;;;4.05;2.83;;;;;;;20.81;51.59;97838.22;10446860;28;20048;-58
2022/06/14 18:39:58;;;;;;;4.68;3.38;;;;;;;20.65;51.45;97849.38;10440639;28;20483;-57
2022/06/14 18:45:12;;;;;;;4.95;3.80;;;;;;;20.55;51.96;97853.31;10445542;28;20055;-58
2022/06/14 18:50:17;;;;;;;9.25;2.70;;;;;;;20.25;51.13;97850.91;10424040;28;20063;-58
2022/06/14 18:55:18;;;;;;;5.05;2.72;;;;;;;20.28;51.86;97849.94;10409556;28;20616;-57
2022/06/14 19:00:27;;;;;;;16.05;3.22;;;;;;;20.27;51.30;97853.50;10414456;28;20052;-58
2022/06/14 19:05:39;;;;;;;6.75;2.70;;;;;;;20.19;50.92;97856.44;10433713;28;20060;-58
2022/06/14 19:11:01;;;;;;;6.63;3.03;;;;;;;20.02;52.66;97870.22;10432322;28;20574;-58
2022/06/14 19:16:28;;;;;;;5.07;2.80;;;;;;;19.96;52.66;97873.09;10414575;28;20063;-58
2022/06/14 19:21:45;;;;;;;3.30;2.90;;;;;;;19.93;52.21;97890.78;10414650;28;20060;-58
2022/06/14 19:27:35;;;;;;;4.15;2.75;;;;;;;19.82;52.94;97894.66;10415547;28;20474;-58
2022/06/14 19:32:40;;;;;;;4.10;2.80;;;;;;;19.75;53.17;97901.06;10399327;28;20071;-58
2022/06/14 19:37:39;;;;;;;4.30;2.90;;;;;;;19.63;53.62;97910.28;10438125;28;20056;-58
2022/06/14 19:42:44;;;;;;;4.70;2.80;;;;;;;19.60;54.13;97914.75;10440513;28;20028;-58
2022/06/14 19:47:50;;;;;;;4.63;2.85;;;;;;;19.51;54.38;97922.94;10442899;28;20428;-58
2022/06/14 19:52:59;;;;;;;8.38;3.40;;;;;;;19.44;55.37;97917.91;10395433;28;20151;-58
2022/06/14 19:58:23;;;;;;;4.75;3.47;;;;;;;19.34;57.06;97923.53;10412843;28;20135;-58
2022/06/14 20:03:27;;;;;;;4.20;3.35;;;;;;;19.15;57.84;97920.66;10438596;28;20059;-60
2022/06/14 20:08:36;;;;;;;6.18;2.80;;;;;;;18.96;58.17;97923.03;10454542;28;20083;-60
2022/06/14 20:13:38;;;;;;;7.00;2.97;;;;;;;18.80;57.81;97928.75;10453122;28;20469;-57
2022/06/14 20:18:48;;;;;;;4.43;2.65;;;;;;;18.69;57.49;97930.00;10454648;28;20056;-57
2022/06/14 20:23:48;;;;;;;3.15;2.50;;;;;;;18.76;57.57;97926.25;10443658;28;20060;-57
2022/06/14 20:28:48;;;;;;;5.57;2.47;;;;;;;18.69;57.84;97935.25;10434706;28;20464;-57
2022/06/14 20:33:52;;;;;;;3.65;2.83;;;;;;;18.73;57.51;97931.63;10430909;28;20687;-58
2022/06/14 20:38:53;;;;;;;5.45;2.90;;;;;;;18.73;56.96;97929.00;10437431;28;20066;-58
2022/06/14 20:43:59;;;;;;;3.95;2.70;;;;;;;18.76;56.89;97931.53;10411275;28;20612;-57
2022/06/14 20:48:59;;;;;;;6.38;3.05;;;;;;;18.79;57.94;97926.19;10437552;28;20051;-58
2022/06/14 20:54:02;;;;;;;7.05;3.03;;;;;;;18.85;57.85;97936.50;10460771;28;20094;-57
2022/06/14 20:59:01;;;;;;;5.25;2.70;;;;;;;18.92;57.84;97930.13;10461640;28;20056;-57
2022/06/14 21:04:00;;;;;;;5.70;2.80;;;;;;;18.78;57.66;97934.97;10432341;28;20056;-57
2022/06/14 21:09:19;;;;;;;4.30;2.90;;;;;;;18.78;57.56;97935.84;10426215;28;20051;-57
2022/06/14 21:14:20;;;;;;;5.97;3.57;;;;;;;18.75;58.20;97940.34;10457728;28;20079;-60
2022/06/14 21:19:20;;;;;;;6.47;3.53;;;;;;;18.62;59.99;97942.47;10460244;28;20056;-58
2022/06/14 21:24:34;;;;;;;6.65;3.90;;;;;;;18.55;60.82;97938.25;10487253;28;20443;-58
2022/06/14 21:29:42;;;;;;;9.65;4.07;;;;;;;18.45;61.67;97935.06;10485114;28;20063;-57
2022/06/14 21:34:58;;;;;;;7.10;4.10;;;;;;;18.36;62.96;97922.19;10456250;28;20067;-57
2022/06/14 21:40:21;;;;;;;8.48;4.20;;;;;;;18.14;63.91;97928.06;10500923;28;20067;-57
2022/06/14 21:45:23;;;;;;;6.28;4.32;;;;;;;18.03;64.84;97945.03;10480733;28;20834;-57
2022/06/14 21:50:24;;;;;;;7.82;4.55;;;;;;;17.69;68.69;97935.44;10483747;28;20066;-57
2022/06/14 21:55:25;;;;;;;8.15;4.53;;;;;;;17.40;71.01;97946.69;10433410;28;20451;-58
2022/06/14 22:00:49;;;;;;;7.55;4.68;;;;;;;17.03;73.87;97951.09;10423569;28;20060;-57
2022/06/14 22:05:54;;;;;;;6.82;4.72;;;;;;;16.91;74.21;97946.09;10457102;28;20067;-58
2022/06/14 22:10:56;;;;;;;7.85;4.45;;;;;;;16.89;73.90;97948.78;10459114;28;20067;-57
2022/06/14 22:15:55;;;;;;;10.90;4.93;;;;;;;16.91;73.47;97938.25;10482769;28;20055;-57
2022/06/14 22:20:55;;;;;;;5.68;4.22;;;;;;;16.93;74.28;97950.44;10456043;28;20063;-57
2022/06/14 22:25:56;;;;;;;8.73;4.68;;;;;;;16.90;74.05;97953.13;10430389;28;20072;-57
2022/06/14 22:30:57;;;;;;;9.40;4.88;;;;;;;16.82;74.57;97948.97;10443082;28;20479;-59
2022/06/14 22:36:06;;;;;;;10.55;4.47;;;;;;;16.79;74.60;97941.13;10457756;28;20690;-57
2022/06/14 22:41:06;;;;;;;;;;;;;;;16.72;75.09;97950.88;10456130;28;20086;-57
2022/06/14 22:46:05;;;;;;;;;;;;;;;16.70;75.45;97965.81;10444148;28;19947;-57
2022/06/14 22:51:05;;;;;;;7.70;4.87;;;;;;;16.63;76.56;97956.31;10490681;28;19930;-57
2022/06/14 22:56:10;;;;;;;7.60;4.32;;;;;;;16.52;76.77;97965.28;10457065;28;20071;-57
2022/06/14 23:01:10;;;;;;;6.55;4.40;;;;;;;16.45;76.58;97962.84;10456425;28;20059;-57
2022/06/14 23:06:09;;;;;;;6.45;4.28;;;;;;;16.42;75.86;97960.28;10455273;28;20055;-57
2022/06/14 23:11:09;;;;;;;;;;;;;;;16.36;74.63;97966.50;10455044;28;20081;-57
2022/06/14 23:16:12;;;;;;;;;;;;;;;16.29;74.10;97959.69;10456963;28;19951;-57
2022/06/14 23:21:12;;;;;;;6.82;4.85;;;;;;;16.08;73.55;97938.28;10431456;28;20011;-57
2022/06/14 23:26:11;;;;;;;8.82;5.13;;;;;;;16.13;73.51;97955.66;10436630;28;20052;-57
2022/06/14 23:31:10;;;;;;;8.57;4.50;;;;;;;15.99;72.93;97938.44;10426536;28;20715;-57
2022/06/14 23:36:09;;;;;;;;;;;;;;;16.03;73.33;97955.81;10437748;28;20119;-57
2022/06/14 23:41:08;;;;;;;6.45;4.20;;;;;;;16.00;73.46;97948.03;10443025;28;19972;-57
2022/06/14 23:46:07;;;;;;;7.38;4.18;;;;;;;16.03;73.82;97945.34;10441457;28;20052;-57
2022/06/14 23:51:06;;;;;;;;;;;;;;;15.96;73.99;97942.91;10450998;28;20036;-59
2022/06/14 23:56:10;;;;;;;11.57;4.50;;;;;;;15.95;73.82;97944.66;10455392;28;20011;-57
